This is the latest recevied weather packets stored in our database for station/object KJ5MTR. If no packets are shown the sender has not sent any weather packets the latest 10 day(s).
| Time | Temp. | Humidity | Pressure | Rain* | Wind** | Luminosity | Snow |
|---|---|---|---|---|---|---|---|
| 1778086517 | 19.44° C | 83% | 1011.5 hPa | 0 mm | - | - | - |
| 1778085317 | 17.78° C | 88% | 1011.8 hPa | 0 mm | - | - | - |
| 1778083517 | 16.67° C | 90% | 1013.1 hPa | 0 mm | - | - | - |
| 1778079317 | 23.33° C | 77% | 1011 hPa | 0 mm | - | - | - |
| 1778078717 | 26.11° C | 84% | 1010.2 hPa | 0 mm | - | - | - |
| 1778075116 | 25.56° C | 86% | 1009.4 hPa | 0 mm | - | - | - |
| 1778073917 | 24.44° C | 90% | 1009.2 hPa | 0 mm | - | - | - |
| 1778067916 | 23.33° C | 92% | 1008.8 hPa | 0 mm | - | - | - |
| 1778065516 | 23.33° C | 92% | 1008.8 hPa | 0 mm | - | - | - |
| 1778064316 | 23.89° C | 91% | 1008.7 hPa | 0 mm | - | - | - |
| 1778060116 | 23.89° C | 91% | 1008 hPa | 0 mm | - | - | - |
| 1778058916 | 23.89° C | 91% | 1007.9 hPa | 0 mm | - | - | - |
| 1778055916 | 23.89° C | 90% | 1007.4 hPa | 0 mm | - | - | - |
| 1778051116 | 24.44° C | 90% | 1007.9 hPa | 0 mm | - | - | - |
| 1778047516 | 24.44° C | 90% | 1007.8 hPa | 0 mm | - | - | - |
| 1778046916 | 24.44° C | 91% | 1007.8 hPa | 0 mm | - | - | - |
| 1778040916 | 24.44° C | 89% | 1007.5 hPa | 0 mm | - | - | - |
| 1778039716 | 24.44° C | 89% | 1007.2 hPa | 0 mm | - | - | - |
| 1778034916 | 25.56° C | 85% | 1006.3 hPa | 0 mm | - | - | - |
| 1778034336 | 25.56° C | 84% | 1006.1 hPa | 0 mm | - | - | - |
| 1778030716 | 26.67° C | 80% | 1005.5 hPa | 0 mm | - | - | - |
| 1778027116 | 27.78° C | 75% | 1005.7 hPa | 0 mm | - | - | - |
| 1778025335 | 28.33° C | 73% | 1005.6 hPa | 0 mm | - | - | - |
| 1778020517 | 29.44° C | 70% | 1005 hPa | 0 mm | - | - | - |
| 1778018717 | 30° C | 69% | 1005.3 hPa | 0 mm | - | - | - |
* Rain latest hour (hover to see other rain measurements)
** Current wind speed in m/s (hover to see current wind gust speed)